sensor_id;sensor_type;location;lat;lon;timestamp;pressure;altitude;pressure_sealevel;temperature;humidity
72157;BME280;60035;52.122;5.406;2022-11-20T00:03:32;101657.94;;;-3.25;85.14
72157;BME280;60035;52.122;5.406;2022-11-20T00:06:00;101657.00;;;-3.27;84.65
72157;BME280;60035;52.122;5.406;2022-11-20T00:08:27;101656.94;;;-3.28;84.90
72157;BME280;60035;52.122;5.406;2022-11-20T00:10:53;101649.38;;;-3.30;84.73
72157;BME280;60035;52.122;5.406;2022-11-20T00:13:20;101653.53;;;-3.30;85.17
72157;BME280;60035;52.122;5.406;2022-11-20T00:15:46;101650.06;;;-3.34;84.95
72157;BME280;60035;52.122;5.406;2022-11-20T00:18:13;101648.16;;;-3.40;84.60
72157;BME280;60035;52.122;5.406;2022-11-20T00:20:41;101642.28;;;-3.40;84.94
72157;BME280;60035;52.122;5.406;2022-11-20T00:23:08;101643.00;;;-3.43;85.29
72157;BME280;60035;52.122;5.406;2022-11-20T00:25:34;101642.22;;;-3.42;85.05
72157;BME280;60035;52.122;5.406;2022-11-20T00:28:01;101644.72;;;-3.42;85.31
72157;BME280;60035;52.122;5.406;2022-11-20T00:30:28;101652.19;;;-3.43;85.39
72157;BME280;60035;52.122;5.406;2022-11-20T00:32:56;101646.38;;;-3.42;85.53
72157;BME280;60035;52.122;5.406;2022-11-20T00:35:23;101641.22;;;-3.45;85.16
72157;BME280;60035;52.122;5.406;2022-11-20T00:37:52;101632.94;;;-3.44;84.92
72157;BME280;60035;52.122;5.406;2022-11-20T00:40:18;101636.22;;;-3.45;84.50
72157;BME280;60035;52.122;5.406;2022-11-20T00:42:45;101634.44;;;-3.48;84.94
72157;BME280;60035;52.122;5.406;2022-11-20T00:45:12;101637.88;;;-3.46;84.77
72157;BME280;60035;52.122;5.406;2022-11-20T00:47:38;101637.03;;;-3.46;85.29
72157;BME280;60035;52.122;5.406;2022-11-20T00:50:05;101641.97;;;-3.48;85.37
72157;BME280;60035;52.122;5.406;2022-11-20T00:52:31;101643.63;;;-3.48;84.80
72157;BME280;60035;52.122;5.406;2022-11-20T00:54:58;101633.59;;;-3.48;84.62
72157;BME280;60035;52.122;5.406;2022-11-20T00:57:24;101629.38;;;-3.49;84.79
72157;BME280;60035;52.122;5.406;2022-11-20T00:59:50;101623.66;;;-3.47;85.32
72157;BME280;60035;52.122;5.406;2022-11-20T01:02:17;101620.31;;;-3.47;85.22
72157;BME280;60035;52.122;5.406;2022-11-20T01:04:44;101622.53;;;-3.54;85.03
72157;BME280;60035;52.122;5.406;2022-11-20T01:07:10;101624.06;;;-3.57;85.74
72157;BME280;60035;52.122;5.406;2022-11-20T01:09:37;101620.66;;;-3.59;85.84
72157;BME280;60035;52.122;5.406;2022-11-20T01:12:04;101618.28;;;-3.56;85.48
72157;BME280;60035;52.122;5.406;2022-11-20T01:14:31;101620.66;;;-3.59;85.66
72157;BME280;60035;52.122;5.406;2022-11-20T01:16:57;101624.72;;;-3.61;85.55
72157;BME280;60035;52.122;5.406;2022-11-20T01:19:24;101624.88;;;-3.58;85.62
72157;BME280;60035;52.122;5.406;2022-11-20T01:21:53;101616.56;;;-3.57;85.92
72157;BME280;60035;52.122;5.406;2022-11-20T01:24:21;101609.19;;;-3.54;85.58
72157;BME280;60035;52.122;5.406;2022-11-20T01:26:49;101604.03;;;-3.57;85.42
72157;BME280;60035;52.122;5.406;2022-11-20T01:29:20;101615.22;;;-3.70;85.43
72157;BME280;60035;52.122;5.406;2022-11-20T01:31:47;101606.72;;;-3.74;86.02
72157;BME280;60035;52.122;5.406;2022-11-20T01:34:16;101610.69;;;-3.79;85.62
72157;BME280;60035;52.122;5.406;2022-11-20T01:36:44;101602.19;;;-3.82;86.00
72157;BME280;60035;52.122;5.406;2022-11-20T01:39:14;101604.50;;;-3.87;86.17
72157;BME280;60035;52.122;5.406;2022-11-20T01:41:41;101615.22;;;-3.90;85.87
72157;BME280;60035;52.122;5.406;2022-11-20T01:44:50;101604.44;;;-3.89;86.60
72157;BME280;60035;52.122;5.406;2022-11-20T01:47:23;101606.88;;;-3.90;86.33
72157;BME280;60035;52.122;5.406;2022-11-20T01:52:51;101603.56;;;-3.89;85.94
72157;BME280;60035;52.122;5.406;2022-11-20T01:55:26;101601.88;;;-3.90;86.06
72157;BME280;60035;52.122;5.406;2022-11-20T01:57:55;101611.69;;;-3.95;86.01
72157;BME280;60035;52.122;5.406;2022-11-20T02:00:21;101608.06;;;-4.02;86.06
72157;BME280;60035;52.122;5.406;2022-11-20T02:02:53;101604.44;;;-4.08;85.65
72157;BME280;60035;52.122;5.406;2022-11-20T02:05:35;101602.44;;;-4.15;85.76
72157;BME280;60035;52.122;5.406;2022-11-20T02:08:04;101619.78;;;-4.20;86.25
72157;BME280;60035;52.122;5.406;2022-11-20T02:10:33;101606.44;;;-4.21;85.92
72157;BME280;60035;52.122;5.406;2022-11-20T02:13:00;101608.13;;;-4.20;86.56
72157;BME280;60035;52.122;5.406;2022-11-20T02:15:45;101609.66;;;-4.23;85.96
72157;BME280;60035;52.122;5.406;2022-11-20T02:18:14;101604.66;;;-4.23;86.30
72157;BME280;60035;52.122;5.406;2022-11-20T02:20:44;101603.00;;;-4.23;86.23
72157;BME280;60035;52.122;5.406;2022-11-20T02:25:53;101601.09;;;-4.28;86.37
72157;BME280;60035;52.122;5.406;2022-11-20T02:28:22;101599.31;;;-4.31;86.07
72157;BME280;60035;52.122;5.406;2022-11-20T02:30:49;101591.81;;;-4.31;86.47
72157;BME280;60035;52.122;5.406;2022-11-20T02:33:16;101595.22;;;-4.29;86.04
72157;BME280;60035;52.122;5.406;2022-11-20T02:35:44;101591.16;;;-4.27;86.31
72157;BME280;60035;52.122;5.406;2022-11-20T02:38:11;101586.34;;;-4.22;85.91
72157;BME280;60035;52.122;5.406;2022-11-20T02:40:39;101574.75;;;-4.20;85.75
72157;BME280;60035;52.122;5.406;2022-11-20T02:43:05;101568.25;;;-4.16;85.97
72157;BME280;60035;52.122;5.406;2022-11-20T02:45:32;101578.31;;;-4.15;85.72
72157;BME280;60035;52.122;5.406;2022-11-20T02:47:58;101584.03;;;-4.18;85.95
72157;BME280;60035;52.122;5.406;2022-11-20T02:50:25;101582.31;;;-4.19;85.60
72157;BME280;60035;52.122;5.406;2022-11-20T02:52:51;101576.44;;;-4.21;85.94
72157;BME280;60035;52.122;5.406;2022-11-20T02:55:21;101578.00;;;-4.23;85.88
72157;BME280;60035;52.122;5.406;2022-11-20T02:57:47;101574.50;;;-4.26;85.98
72157;BME280;60035;52.122;5.406;2022-11-20T03:00:14;101566.34;;;-4.22;86.08
72157;BME280;60035;52.122;5.406;2022-11-20T03:02:40;101573.09;;;-4.20;85.92
72157;BME280;60035;52.122;5.406;2022-11-20T03:05:08;101566.09;;;-4.28;85.47
72157;BME280;60035;52.122;5.406;2022-11-20T03:07:35;101564.31;;;-4.31;85.37
72157;BME280;60035;52.122;5.406;2022-11-20T03:10:01;101563.19;;;-4.38;85.87
72157;BME280;60035;52.122;5.406;2022-11-20T03:12:28;101556.41;;;-4.40;85.73
72157;BME280;60035;52.122;5.406;2022-11-20T03:14:54;101562.97;;;-4.42;86.06
72157;BME280;60035;52.122;5.406;2022-11-20T03:17:21;101559.56;;;-4.44;86.06
72157;BME280;60035;52.122;5.406;2022-11-20T03:19:48;101560.78;;;-4.54;85.49
72157;BME280;60035;52.122;5.406;2022-11-20T03:22:14;101547.97;;;-4.62;85.65
72157;BME280;60035;52.122;5.406;2022-11-20T03:24:41;101550.22;;;-4.68;85.76
72157;BME280;60035;52.122;5.406;2022-11-20T03:27:07;101554.94;;;-4.74;85.92
72157;BME280;60035;52.122;5.406;2022-11-20T03:29:37;101561.47;;;-4.76;86.02
72157;BME280;60035;52.122;5.406;2022-11-20T03:32:03;101551.50;;;-4.76;85.79
72157;BME280;60035;52.122;5.406;2022-11-20T03:34:30;101554.81;;;-4.77;85.50
72157;BME280;60035;52.122;5.406;2022-11-20T03:36:57;101552.31;;;-4.77;86.08
72157;BME280;60035;52.122;5.406;2022-11-20T03:39:23;101550.72;;;-4.75;85.65
72157;BME280;60035;52.122;5.406;2022-11-20T03:41:50;101551.66;;;-4.73;85.93
72157;BME280;60035;52.122;5.406;2022-11-20T03:44:16;101543.22;;;-4.75;85.82
72157;BME280;60035;52.122;5.406;2022-11-20T03:46:43;101533.28;;;-4.74;86.10
72157;BME280;60035;52.122;5.406;2022-11-20T03:49:09;101533.16;;;-4.77;85.60
72157;BME280;60035;52.122;5.406;2022-11-20T03:51:36;101534.66;;;-4.80;85.94
72157;BME280;60035;52.122;5.406;2022-11-20T03:54:05;101541.38;;;-4.79;85.49
72157;BME280;60035;52.122;5.406;2022-11-20T03:56:35;101530.59;;;-4.78;86.23
72157;BME280;60035;52.122;5.406;2022-11-20T03:59:02;101529.81;;;-4.77;85.89
72157;BME280;60035;52.122;5.406;2022-11-20T04:01:32;101535.31;;;-4.85;85.59
72157;BME280;60035;52.122;5.406;2022-11-20T04:03:59;101536.09;;;-4.86;86.09
72157;BME280;60035;52.122;5.406;2022-11-20T04:06:28;101527.97;;;-4.81;85.69
72157;BME280;60035;52.122;5.406;2022-11-20T04:08:56;101520.47;;;-4.81;85.45
72157;BME280;60035;52.122;5.406;2022-11-20T04:11:25;101524.47;;;-4.85;85.67
72157;BME280;60035;52.122;5.406;2022-11-20T04:13:54;101526.25;;;-4.82;85.77
72157;BME280;60035;52.122;5.406;2022-11-20T04:16:22;101518.81;;;-4.81;85.74
72157;BME280;60035;52.122;5.406;2022-11-20T04:18:53;101524.81;;;-4.77;85.60
72157;BME280;60035;52.122;5.406;2022-11-20T04:21:20;101517.31;;;-4.77;85.70
72157;BME280;60035;52.122;5.406;2022-11-20T04:23:47;101514.78;;;-4.79;86.31
72157;BME280;60035;52.122;5.406;2022-11-20T04:26:13;101520.72;;;-4.75;86.26
72157;BME280;60035;52.122;5.406;2022-11-20T04:28:40;101521.31;;;-4.81;86.10
72157;BME280;60035;52.122;5.406;2022-11-20T04:31:09;101519.75;;;-4.79;85.94
72157;BME280;60035;52.122;5.406;2022-11-20T04:33:37;101521.25;;;-4.82;86.29
72157;BME280;60035;52.122;5.406;2022-11-20T04:36:06;101524.47;;;-4.85;86.44
72157;BME280;60035;52.122;5.406;2022-11-20T04:38:33;101515.34;;;-4.85;85.57
72157;BME280;60035;52.122;5.406;2022-11-20T04:41:02;101503.72;;;-4.84;86.11
72157;BME280;60035;52.122;5.406;2022-11-20T04:43:29;101500.28;;;-4.86;85.66
72157;BME280;60035;52.122;5.406;2022-11-20T04:45:57;101507.59;;;-4.91;86.33
72157;BME280;60035;52.122;5.406;2022-11-20T04:48:26;101502.72;;;-4.88;85.83
72157;BME280;60035;52.122;5.406;2022-11-20T04:50:53;101498.78;;;-4.82;86.10
72157;BME280;60035;52.122;5.406;2022-11-20T04:53:20;101497.06;;;-4.83;86.02
72157;BME280;60035;52.122;5.406;2022-11-20T04:55:47;101499.50;;;-4.85;85.95
72157;BME280;60035;52.122;5.406;2022-11-20T04:58:14;101496.94;;;-4.87;85.59
72157;BME280;60035;52.122;5.406;2022-11-20T05:00:41;101492.66;;;-4.89;85.99
72157;BME280;60035;52.122;5.406;2022-11-20T05:03:07;101506.44;;;-4.97;85.67
72157;BME280;60035;52.122;5.406;2022-11-20T05:05:34;101501.13;;;-5.05;85.59
72157;BME280;60035;52.122;5.406;2022-11-20T05:08:01;101493.41;;;-5.10;85.79
72157;BME280;60035;52.122;5.406;2022-11-20T05:10:28;101494.13;;;-5.12;85.55
72157;BME280;60035;52.122;5.406;2022-11-20T05:12:56;101493.94;;;-5.17;85.99
72157;BME280;60035;52.122;5.406;2022-11-20T05:15:23;101491.28;;;-5.20;85.99
72157;BME280;60035;52.122;5.406;2022-11-20T05:17:51;101490.44;;;-5.21;85.83
72157;BME280;60035;52.122;5.406;2022-11-20T05:20:18;101490.28;;;-5.24;85.95
72157;BME280;60035;52.122;5.406;2022-11-20T05:22:45;101486.03;;;-5.26;86.18
72157;BME280;60035;52.122;5.406;2022-11-20T05:25:12;101467.25;;;-5.18;85.53
72157;BME280;60035;52.122;5.406;2022-11-20T05:27:39;101472.25;;;-5.18;85.83
72157;BME280;60035;52.122;5.406;2022-11-20T05:30:06;101468.81;;;-5.20;85.80
72157;BME280;60035;52.122;5.406;2022-11-20T05:32:33;101463.03;;;-5.19;85.57
72157;BME280;60035;52.122;5.406;2022-11-20T05:34:59;101463.16;;;-5.16;85.81
72157;BME280;60035;52.122;5.406;2022-11-20T05:37:26;101456.53;;;-5.15;85.56
72157;BME280;60035;52.122;5.406;2022-11-20T05:39:52;101447.06;;;-5.23;85.74
72157;BME280;60035;52.122;5.406;2022-11-20T05:42:19;101448.94;;;-5.19;85.97
72157;BME280;60035;52.122;5.406;2022-11-20T05:44:58;101445.63;;;-5.18;86.68
72157;BME280;60035;52.122;5.406;2022-11-20T05:47:32;101458.09;;;-5.18;86.09
72157;BME280;60035;52.122;5.406;2022-11-20T05:50:00;101463.75;;;-5.22;85.89
72157;BME280;60035;52.122;5.406;2022-11-20T05:52:29;101466.91;;;-5.26;86.29
72157;BME280;60035;52.122;5.406;2022-11-20T05:54:56;101476.09;;;-5.25;86.23
72157;BME280;60035;52.122;5.406;2022-11-20T05:57:23;101484.06;;;-5.32;86.38
72157;BME280;60035;52.122;5.406;2022-11-20T05:59:49;101483.81;;;-5.38;85.97
72157;BME280;60035;52.122;5.406;2022-11-20T06:02:16;101481.38;;;-5.37;85.94
72157;BME280;60035;52.122;5.406;2022-11-20T06:04:42;101491.38;;;-5.37;85.84
72157;BME280;60035;52.122;5.406;2022-11-20T06:07:09;101487.88;;;-5.40;86.26
72157;BME280;60035;52.122;5.406;2022-11-20T06:09:36;101487.09;;;-5.39;85.71
72157;BME280;60035;52.122;5.406;2022-11-20T06:12:03;101491.84;;;-5.44;85.36
72157;BME280;60035;52.122;5.406;2022-11-20T06:14:29;101496.66;;;-5.48;85.81
72157;BME280;60035;52.122;5.406;2022-11-20T06:16:56;101503.28;;;-5.49;85.56
72157;BME280;60035;52.122;5.406;2022-11-20T06:19:22;101504.00;;;-5.52;85.70
72157;BME280;60035;52.122;5.406;2022-11-20T06:21:49;101497.94;;;-5.57;85.52
72157;BME280;60035;52.122;5.406;2022-11-20T06:24:16;101502.06;;;-5.57;86.03
72157;BME280;60035;52.122;5.406;2022-11-20T06:26:43;101510.34;;;-5.58;85.80
72157;BME280;60035;52.122;5.406;2022-11-20T06:29:10;101501.97;;;-5.59;85.61
72157;BME280;60035;52.122;5.406;2022-11-20T06:31:39;101495.44;;;-5.57;86.13
72157;BME280;60035;52.122;5.406;2022-11-20T06:34:09;101499.06;;;-5.50;86.13
72157;BME280;60035;52.122;5.406;2022-11-20T06:36:35;101494.16;;;-5.48;85.82
72157;BME280;60035;52.122;5.406;2022-11-20T06:39:02;101495.00;;;-5.48;85.95
72157;BME280;60035;52.122;5.406;2022-11-20T06:41:29;101489.28;;;-5.45;86.03
72157;BME280;60035;52.122;5.406;2022-11-20T06:43:55;101495.88;;;-5.47;85.96
72157;BME280;60035;52.122;5.406;2022-11-20T06:46:22;101499.84;;;-5.51;86.13
72157;BME280;60035;52.122;5.406;2022-11-20T06:48:49;101502.47;;;-5.48;86.29
72157;BME280;60035;52.122;5.406;2022-11-20T06:51:16;101496.94;;;-5.42;86.33
72157;BME280;60035;52.122;5.406;2022-11-20T06:53:43;101490.38;;;-5.40;86.12
72157;BME280;60035;52.122;5.406;2022-11-20T06:56:09;101501.22;;;-5.40;85.93
72157;BME280;60035;52.122;5.406;2022-11-20T06:58:36;101493.56;;;-5.43;86.72
72157;BME280;60035;52.122;5.406;2022-11-20T07:01:09;101485.44;;;-5.39;86.34
72157;BME280;60035;52.122;5.406;2022-11-20T07:03:37;101480.75;;;-5.32;86.39
72157;BME280;60035;52.122;5.406;2022-11-20T07:06:04;101476.69;;;-5.30;86.62
72157;BME280;60035;52.122;5.406;2022-11-20T07:08:31;101482.66;;;-5.27;86.12
72157;BME280;60035;52.122;5.406;2022-11-20T07:11:04;101472.88;;;-5.22;85.83
72157;BME280;60035;52.122;5.406;2022-11-20T07:13:31;101476.28;;;-5.20;85.67
72157;BME280;60035;52.122;5.406;2022-11-20T07:16:04;101473.78;;;-5.20;85.52
72157;BME280;60035;52.122;5.406;2022-11-20T07:18:31;101471.41;;;-5.19;85.90
72157;BME280;60035;52.122;5.406;2022-11-20T07:21:02;101474.50;;;-5.23;85.90
72157;BME280;60035;52.122;5.406;2022-11-20T07:23:29;101471.94;;;-5.24;86.01
72157;BME280;60035;52.122;5.406;2022-11-20T07:25:55;101477.59;;;-5.28;86.50
72157;BME280;60035;52.122;5.406;2022-11-20T07:28:22;101474.44;;;-5.24;86.24
72157;BME280;60035;52.122;5.406;2022-11-20T07:30:52;101464.75;;;-5.18;86.46
72157;BME280;60035;52.122;5.406;2022-11-20T07:33:19;101462.44;;;-5.13;86.53
72157;BME280;60035;52.122;5.406;2022-11-20T07:35:46;101463.25;;;-5.14;86.21
72157;BME280;60035;52.122;5.406;2022-11-20T07:38:12;101464.16;;;-5.12;86.62
72157;BME280;60035;52.122;5.406;2022-11-20T07:40:39;101458.56;;;-5.07;86.57
72157;BME280;60035;52.122;5.406;2022-11-20T07:43:06;101462.28;;;-4.98;86.40
72157;BME280;60035;52.122;5.406;2022-11-20T07:45:32;101459.91;;;-4.95;86.38
72157;BME280;60035;52.122;5.406;2022-11-20T07:47:59;101458.19;;;-4.96;86.68
72157;BME280;60035;52.122;5.406;2022-11-20T07:50:25;101464.19;;;-4.93;86.63
72157;BME280;60035;52.122;5.406;2022-11-20T07:52:52;101468.59;;;-4.87;86.63
72157;BME280;60035;52.122;5.406;2022-11-20T07:55:18;101469.88;;;-4.77;86.75
72157;BME280;60035;52.122;5.406;2022-11-20T07:57:45;101465.06;;;-4.73;86.58
72157;BME280;60035;52.122;5.406;2022-11-20T08:00:12;101467.94;;;-4.63;87.25
72157;BME280;60035;52.122;5.406;2022-11-20T08:02:40;101465.00;;;-4.55;86.88
72157;BME280;60035;52.122;5.406;2022-11-20T08:05:08;101468.66;;;-4.46;86.71
72157;BME280;60035;52.122;5.406;2022-11-20T08:07:41;101465.56;;;-4.41;86.47
72157;BME280;60035;52.122;5.406;2022-11-20T08:10:10;101464.38;;;-4.29;86.74
72157;BME280;60035;52.122;5.406;2022-11-20T08:12:47;101453.75;;;-4.24;86.91
72157;BME280;60035;52.122;5.406;2022-11-20T08:15:32;101439.75;;;-4.20;86.46
72157;BME280;60035;52.122;5.406;2022-11-20T08:18:06;101449.19;;;-4.13;86.73
72157;BME280;60035;52.122;5.406;2022-11-20T08:20:53;101447.25;;;-3.99;87.01
72157;BME280;60035;52.122;5.406;2022-11-20T08:23:19;101440.41;;;-3.82;86.61
72157;BME280;60035;52.122;5.406;2022-11-20T08:25:49;101448.50;;;-3.66;86.89
72157;BME280;60035;52.122;5.406;2022-11-20T08:28:16;101453.94;;;-3.56;86.82
72157;BME280;60035;52.122;5.406;2022-11-20T08:30:47;101441.78;;;-3.46;86.70
72157;BME280;60035;52.122;5.406;2022-11-20T08:33:13;101437.84;;;-3.40;87.23
72157;BME280;60035;52.122;5.406;2022-11-20T08:35:49;101445.47;;;-3.37;86.97
72157;BME280;60035;52.122;5.406;2022-11-20T08:38:16;101448.94;;;-3.33;86.62
72157;BME280;60035;52.122;5.406;2022-11-20T08:40:43;101445.75;;;-3.29;87.08
72157;BME280;60035;52.122;5.406;2022-11-20T08:43:32;101445.25;;;-3.20;87.29
72157;BME280;60035;52.122;5.406;2022-11-20T08:45:58;101445.44;;;-3.14;87.10
72157;BME280;60035;52.122;5.406;2022-11-20T08:48:25;101445.78;;;-3.05;87.66
72157;BME280;60035;52.122;5.406;2022-11-20T08:50:51;101439.47;;;-2.95;87.83
72157;BME280;60035;52.122;5.406;2022-11-20T08:53:18;101449.00;;;-2.85;87.23
72157;BME280;60035;52.122;5.406;2022-11-20T08:55:44;101439.94;;;-2.81;87.81
72157;BME280;60035;52.122;5.406;2022-11-20T08:58:11;101432.59;;;-2.76;88.00
72157;BME280;60035;52.122;5.406;2022-11-20T09:00:37;101431.19;;;-2.68;87.48
72157;BME280;60035;52.122;5.406;2022-11-20T09:03:03;101432.09;;;-2.66;87.64
72157;BME280;60035;52.122;5.406;2022-11-20T09:05:30;101442.28;;;-2.61;87.64
72157;BME280;60035;52.122;5.406;2022-11-20T09:07:57;101434.25;;;-2.53;88.07
72157;BME280;60035;52.122;5.406;2022-11-20T09:10:27;101433.66;;;-2.44;88.13
72157;BME280;60035;52.122;5.406;2022-11-20T09:12:54;101432.25;;;-2.36;88.00
72157;BME280;60035;52.122;5.406;2022-11-20T09:15:25;101433.47;;;-2.24;88.17
72157;BME280;60035;52.122;5.406;2022-11-20T09:17:52;101425.47;;;-2.14;88.14
72157;BME280;60035;52.122;5.406;2022-11-20T09:20:19;101420.63;;;-2.08;87.89
72157;BME280;60035;52.122;5.406;2022-11-20T09:22:46;101415.72;;;-2.05;88.06
72157;BME280;60035;52.122;5.406;2022-11-20T09:25:12;101403.50;;;-1.94;87.79
72157;BME280;60035;52.122;5.406;2022-11-20T09:27:39;101396.25;;;-1.85;88.06
72157;BME280;60035;52.122;5.406;2022-11-20T09:30:07;101394.81;;;-1.76;88.22
72157;BME280;60035;52.122;5.406;2022-11-20T09:32:34;101382.38;;;-1.73;87.79
72157;BME280;60035;52.122;5.406;2022-11-20T09:35:01;101380.81;;;-1.68;88.05
72157;BME280;60035;52.122;5.406;2022-11-20T09:37:28;101376.78;;;-1.63;88.13
72157;BME280;60035;52.122;5.406;2022-11-20T09:39:54;101378.66;;;-1.57;88.00
72157;BME280;60035;52.122;5.406;2022-11-20T09:42:41;101381.47;;;-1.46;88.00
72157;BME280;60035;52.122;5.406;2022-11-20T09:45:21;101370.03;;;-1.35;87.84
72157;BME280;60035;52.122;5.406;2022-11-20T09:50:42;101370.66;;;-1.13;88.06
72157;BME280;60035;52.122;5.406;2022-11-20T09:53:16;101363.25;;;-1.07;87.65
72157;BME280;60035;52.122;5.406;2022-11-20T09:55:45;101370.00;;;-1.06;87.57
72157;BME280;60035;52.122;5.406;2022-11-20T09:58:21;101366.03;;;-0.98;88.02
72157;BME280;60035;52.122;5.406;2022-11-20T10:00:52;101362.16;;;-0.85;88.23
72157;BME280;60035;52.122;5.406;2022-11-20T10:03:35;101363.22;;;-0.77;88.03
72157;BME280;60035;52.122;5.406;2022-11-20T10:06:09;101356.69;;;-0.70;88.11
72157;BME280;60035;52.122;5.406;2022-11-20T10:08:45;101346.75;;;-0.65;87.94
72157;BME280;60035;52.122;5.406;2022-11-20T10:11:52;101347.00;;;-0.55;88.37
72157;BME280;60035;52.122;5.406;2022-11-20T10:20:14;101337.75;;;-0.21;87.50
72157;BME280;60035;52.122;5.406;2022-11-20T10:22:52;101335.41;;;-0.13;87.71
72157;BME280;60035;52.122;5.406;2022-11-20T10:25:30;101328.69;;;-0.12;87.54
72157;BME280;60035;52.122;5.406;2022-11-20T10:31:08;101320.69;;;0.06;87.09
72157;BME280;60035;52.122;5.406;2022-11-20T10:33:41;101314.00;;;0.08;87.23
72157;BME280;60035;52.122;5.406;2022-11-20T10:36:34;101304.00;;;0.09;87.15
72157;BME280;60035;52.122;5.406;2022-11-20T10:41:55;101286.75;;;0.28;87.36
72157;BME280;60035;52.122;5.406;2022-11-20T10:44:27;101295.22;;;0.33;87.17
72157;BME280;60035;52.122;5.406;2022-11-20T10:47:15;101296.28;;;0.44;87.25
72157;BME280;60035;52.122;5.406;2022-11-20T10:49:44;101285.44;;;0.48;87.40
72157;BME280;60035;52.122;5.406;2022-11-20T10:52:44;101272.22;;;0.59;87.09
72157;BME280;60035;52.122;5.406;2022-11-20T10:58:04;101257.38;;;0.74;87.32
72157;BME280;60035;52.122;5.406;2022-11-20T11:00:34;101257.31;;;0.73;87.10
72157;BME280;60035;52.122;5.406;2022-11-20T11:03:00;101264.16;;;0.78;87.23
72157;BME280;60035;52.122;5.406;2022-11-20T11:07:57;101243.41;;;0.93;87.72
72157;BME280;60035;52.122;5.406;2022-11-20T11:10:32;101247.75;;;1.02;87.49
72157;BME280;60035;52.122;5.406;2022-11-20T11:13:02;101233.56;;;1.07;87.55
72157;BME280;60035;52.122;5.406;2022-11-20T11:15:29;101233.66;;;1.15;87.33
72157;BME280;60035;52.122;5.406;2022-11-20T11:17:56;101222.78;;;1.17;87.57
72157;BME280;60035;52.122;5.406;2022-11-20T11:20:25;101219.47;;;1.22;87.79
72157;BME280;60035;52.122;5.406;2022-11-20T11:22:57;101213.69;;;1.27;87.78
72157;BME280;60035;52.122;5.406;2022-11-20T11:27:53;101204.59;;;1.39;87.73
72157;BME280;60035;52.122;5.406;2022-11-20T11:30:23;101197.91;;;1.41;87.86
72157;BME280;60035;52.122;5.406;2022-11-20T11:32:50;101190.34;;;1.42;87.83
72157;BME280;60035;52.122;5.406;2022-11-20T11:35:21;101184.50;;;1.45;87.86
72157;BME280;60035;52.122;5.406;2022-11-20T11:37:48;101180.34;;;1.48;88.13
72157;BME280;60035;52.122;5.406;2022-11-20T11:40:16;101175.31;;;1.50;87.86
72157;BME280;60035;52.122;5.406;2022-11-20T11:42:59;101165.22;;;1.52;88.04
72157;BME280;60035;52.122;5.406;2022-11-20T11:45:30;101161.91;;;1.56;88.26
72157;BME280;60035;52.122;5.406;2022-11-20T11:48:02;101179.59;;;1.56;88.62
72157;BME280;60035;52.122;5.406;2022-11-20T11:50:29;101169.44;;;1.53;88.63
72157;BME280;60035;52.122;5.406;2022-11-20T11:53:09;101154.34;;;1.57;89.10
72157;BME280;60035;52.122;5.406;2022-11-20T11:56:00;101150.22;;;1.64;89.26
72157;BME280;60035;52.122;5.406;2022-11-20T11:58:51;101150.28;;;1.65;89.30
72157;BME280;60035;52.122;5.406;2022-11-20T12:04:05;101145.28;;;1.72;89.76
72157;BME280;60035;52.122;5.406;2022-11-20T12:06:43;101136.09;;;1.78;90.04
72157;BME280;60035;52.122;5.406;2022-11-20T12:09:10;101128.59;;;1.85;90.05
72157;BME280;60035;52.122;5.406;2022-11-20T12:11:47;101120.22;;;1.89;90.22
72157;BME280;60035;52.122;5.406;2022-11-20T12:14:21;101127.00;;;1.91;90.20
72157;BME280;60035;52.122;5.406;2022-11-20T12:16:51;101118.59;;;1.92;90.69
72157;BME280;60035;52.122;5.406;2022-11-20T12:19:19;101116.91;;;1.94;90.67
72157;BME280;60035;52.122;5.406;2022-11-20T12:24:51;101116.97;;;1.97;90.85
72157;BME280;60035;52.122;5.406;2022-11-20T12:30:07;101113.66;;;2.03;90.94
72157;BME280;60035;52.122;5.406;2022-11-20T12:32:39;101111.97;;;2.04;90.81
72157;BME280;60035;52.122;5.406;2022-11-20T12:38:24;101105.25;;;2.06;91.38
72157;BME280;60035;52.122;5.406;2022-11-20T12:44:04;101095.97;;;2.02;91.41
72157;BME280;60035;52.122;5.406;2022-11-20T12:46:51;101080.81;;;2.05;91.70
72157;BME280;60035;52.122;5.406;2022-11-20T12:49:33;101073.22;;;2.02;91.73
72157;BME280;60035;52.122;5.406;2022-11-20T12:52:13;101056.38;;;2.04;91.82
72157;BME280;60035;52.122;5.406;2022-11-20T12:57:54;101049.69;;;2.06;92.16
72157;BME280;60035;52.122;5.406;2022-11-20T13:00:23;101047.16;;;2.04;92.22
72157;BME280;60035;52.122;5.406;2022-11-20T13:08:35;101023.63;;;2.13;92.62
72157;BME280;60035;52.122;5.406;2022-11-20T13:19:31;101000.97;;;2.19;93.20
72157;BME280;60035;52.122;5.406;2022-11-20T13:21:58;101005.19;;;2.22;93.18
72157;BME280;60035;52.122;5.406;2022-11-20T13:24:28;100999.31;;;2.21;93.37
72157;BME280;60035;52.122;5.406;2022-11-20T13:29:35;100984.16;;;2.24;93.72
72157;BME280;60035;52.122;5.406;2022-11-20T13:32:06;100986.69;;;2.26;93.51
72157;BME280;60035;52.122;5.406;2022-11-20T13:34:34;100991.78;;;2.29;93.75
72157;BME280;60035;52.122;5.406;2022-11-20T13:37:02;100990.91;;;2.28;93.44
72157;BME280;60035;52.122;5.406;2022-11-20T13:39:32;100989.25;;;2.29;93.40
72157;BME280;60035;52.122;5.406;2022-11-20T13:42:20;100983.31;;;2.24;93.93
72157;BME280;60035;52.122;5.406;2022-11-20T13:45:02;100972.41;;;2.28;93.75
72157;BME280;60035;52.122;5.406;2022-11-20T13:47:29;100971.56;;;2.29;93.60
72157;BME280;60035;52.122;5.406;2022-11-20T13:49:58;100965.66;;;2.30;93.65
72157;BME280;60035;52.122;5.406;2022-11-20T13:57:49;100962.31;;;2.31;93.90
72157;BME280;60035;52.122;5.406;2022-11-20T14:00:20;100966.53;;;2.29;93.90
72157;BME280;60035;52.122;5.406;2022-11-20T14:05:40;100958.06;;;2.25;94.35
72157;BME280;60035;52.122;5.406;2022-11-20T14:08:24;100968.16;;;2.25;94.09
72157;BME280;60035;52.122;5.406;2022-11-20T14:11:26;100953.84;;;2.23;94.49
72157;BME280;60035;52.122;5.406;2022-11-20T14:16:29;100921.81;;;2.22;94.61
72157;BME280;60035;52.122;5.406;2022-11-20T14:18:57;100910.06;;;2.24;94.50
72157;BME280;60035;52.122;5.406;2022-11-20T14:21:26;100891.50;;;2.25;94.54